createdAt,value
2023-02-18T00:01:00.538Z,101194.28
2023-02-18T00:03:27.926Z,101175.56
2023-02-18T00:05:54.703Z,101189.63
2023-02-18T00:08:21.719Z,101178.66
2023-02-18T00:10:48.706Z,101189.03
2023-02-18T00:13:15.202Z,101192.97
2023-02-18T00:15:41.803Z,101184.84
2023-02-18T00:18:08.362Z,101194.56
2023-02-18T00:20:36.231Z,101196.00
2023-02-18T00:23:03.564Z,101196.06
2023-02-18T00:25:30.001Z,101194.69
2023-02-18T00:27:56.486Z,101192.81
2023-02-18T00:30:23.038Z,101192.97
2023-02-18T00:32:49.574Z,101200.38
2023-02-18T00:35:17.054Z,101191.19
2023-02-18T00:37:43.643Z,101188.59
2023-02-18T00:40:10.436Z,101196.88
2023-02-18T00:42:37.020Z,101198.59
2023-02-18T00:45:03.755Z,101197.59
2023-02-18T00:47:30.192Z,101192.75
2023-02-18T00:53:06.886Z,101192.84
2023-02-18T00:55:33.362Z,101203.63
2023-02-18T00:57:59.816Z,101204.69
2023-02-18T01:00:26.488Z,101207.59
2023-02-18T01:02:54.663Z,101202.94
2023-02-18T01:05:21.306Z,101209.28
2023-02-18T01:07:47.925Z,101210.13
2023-02-18T01:10:14.513Z,101204.41
2023-02-18T01:12:42.012Z,101219.47
2023-02-18T01:15:09.104Z,101210.19
2023-02-18T01:17:35.567Z,101212.59
2023-02-18T01:20:02.186Z,101215.25
2023-02-18T01:22:28.626Z,101211.38
2023-02-18T01:24:58.240Z,101213.09
2023-02-18T01:27:24.714Z,101209.03
2023-02-18T01:29:51.187Z,101210.47
2023-02-18T01:32:17.866Z,101221.78
2023-02-18T01:34:44.573Z,101223.09
2023-02-18T01:37:11.025Z,101224.91
2023-02-18T01:39:38.182Z,101225.44
2023-02-18T01:42:05.082Z,101229.06
2023-02-18T01:44:41.878Z,101216.59
2023-02-18T01:47:08.311Z,101222.75
2023-02-18T01:49:36.251Z,101218.44
2023-02-18T01:52:07.323Z,101213.59
2023-02-18T01:54:40.590Z,101219.41
2023-02-18T01:57:30.456Z,101209.00
2023-02-18T01:59:59.883Z,101206.91
2023-02-18T02:02:31.137Z,101210.56
2023-02-18T02:05:05.082Z,101205.56
2023-02-18T02:07:31.838Z,101212.47
2023-02-18T02:09:59.929Z,101210.59
2023-02-18T02:12:38.882Z,101216.81
2023-02-18T02:15:11.814Z,101205.50
2023-02-18T02:17:58.948Z,101208.47
2023-02-18T02:20:47.534Z,101196.00
2023-02-18T02:23:40.025Z,101188.06
2023-02-18T02:26:24.288Z,101191.56
2023-02-18T02:29:15.652Z,101193.22
2023-02-18T02:32:10.138Z,101191.97
2023-02-18T02:34:49.424Z,101195.50
2023-02-18T02:37:31.864Z,101198.63
2023-02-18T02:40:07.528Z,101196.25
2023-02-18T02:43:02.680Z,101195.59
2023-02-18T02:45:52.890Z,101183.47
2023-02-18T02:48:49.449Z,101181.34
2023-02-18T02:51:24.303Z,101204.47
2023-02-18T02:53:50.798Z,101192.28
2023-02-18T02:56:20.321Z,101190.72
2023-02-18T02:58:53.930Z,101176.53
2023-02-18T03:01:29.835Z,101186.88
2023-02-18T03:04:24.119Z,101178.13
2023-02-18T03:07:02.347Z,101188.63
2023-02-18T03:09:44.002Z,101192.47
2023-02-18T03:12:55.134Z,101188.59
2023-02-18T03:15:27.961Z,101175.81
2023-02-18T03:18:01.545Z,101183.97
2023-02-18T03:20:32.116Z,101189.50
2023-02-18T03:23:00.207Z,101185.88
2023-02-18T03:25:26.769Z,101184.81
2023-02-18T03:27:56.627Z,101176.59
2023-02-18T03:30:30.680Z,101178.81
2023-02-18T03:33:00.988Z,101167.97
2023-02-18T03:35:27.702Z,101187.06
2023-02-18T03:38:04.457Z,101182.66
2023-02-18T03:40:31.712Z,101185.94
2023-02-18T03:42:59.311Z,101185.50
2023-02-18T03:45:26.823Z,101183.28
2023-02-18T03:47:53.438Z,101182.13
2023-02-18T03:50:20.072Z,101179.13
2023-02-18T03:52:46.522Z,101170.38
2023-02-18T03:55:13.391Z,101157.38
2023-02-18T03:57:39.847Z,101160.75
2023-02-18T04:00:07.419Z,101172.69
2023-02-18T04:02:33.907Z,101171.72
2023-02-18T04:05:00.403Z,101166.09
2023-02-18T04:07:26.898Z,101165.94
2023-02-18T04:09:53.436Z,101156.81
2023-02-18T04:12:19.928Z,101157.94
2023-02-18T04:14:46.406Z,101158.81
2023-02-18T04:17:12.977Z,101149.53
2023-02-18T04:19:39.428Z,101150.41
2023-02-18T04:22:05.903Z,101150.84
2023-02-18T04:24:32.357Z,101148.00
2023-02-18T04:26:58.834Z,101142.47
2023-02-18T04:29:25.288Z,101143.00
2023-02-18T04:31:51.827Z,101141.13
2023-02-18T04:34:18.330Z,101134.69
2023-02-18T04:36:44.853Z,101117.81
2023-02-18T04:39:11.329Z,101121.75
2023-02-18T04:41:37.888Z,101147.00
2023-02-18T04:44:04.354Z,101127.72
2023-02-18T04:46:31.135Z,101143.13
2023-02-18T04:48:57.640Z,101137.13
2023-02-18T04:51:24.175Z,101127.28
2023-02-18T04:53:50.630Z,101141.34
2023-02-18T04:56:17.086Z,101120.63
2023-02-18T04:58:43.574Z,101122.13
2023-02-18T05:01:10.710Z,101115.78
2023-02-18T05:03:37.222Z,101127.66
2023-02-18T05:06:03.901Z,101126.50
2023-02-18T05:08:30.410Z,101120.41
2023-02-18T05:10:56.890Z,101123.75
2023-02-18T05:13:23.447Z,101124.41
2023-02-18T05:15:50.139Z,101113.38
2023-02-18T05:18:16.675Z,101109.69
2023-02-18T05:20:43.996Z,101118.59
2023-02-18T05:23:10.539Z,101106.63
2023-02-18T05:25:36.989Z,101106.44
2023-02-18T05:28:03.557Z,101109.06
2023-02-18T05:30:30.071Z,101096.72
2023-02-18T05:32:56.590Z,101092.50
2023-02-18T05:35:23.032Z,101091.97
2023-02-18T05:37:49.532Z,101083.97
2023-02-18T05:40:15.984Z,101097.25
2023-02-18T05:42:42.474Z,101084.81
2023-02-18T05:45:09.353Z,101083.78
2023-02-18T05:47:35.823Z,101078.50
2023-02-18T05:50:03.458Z,101071.38
2023-02-18T05:52:29.930Z,101069.28
2023-02-18T05:54:56.464Z,101063.44
2023-02-18T05:57:22.971Z,101045.50
2023-02-18T05:59:49.566Z,101056.16
2023-02-18T06:02:16.054Z,101049.75
2023-02-18T06:04:42.508Z,101055.91
2023-02-18T06:07:09.174Z,101038.25
2023-02-18T06:09:35.646Z,101031.63
2023-02-18T06:12:02.235Z,101039.88
2023-02-18T06:14:28.741Z,101029.06
2023-02-18T06:16:55.191Z,101030.81
2023-02-18T06:19:21.641Z,101032.59
2023-02-18T06:21:48.109Z,101025.22
2023-02-18T06:24:14.614Z,101027.31
2023-02-18T06:26:41.094Z,101021.97
2023-02-18T06:29:07.539Z,101028.38
2023-02-18T06:31:34.028Z,101024.47
2023-02-18T06:34:00.571Z,101032.06
2023-02-18T06:36:27.073Z,101027.19
2023-02-18T06:38:56.257Z,101030.94
2023-02-18T06:41:22.989Z,101035.09
2023-02-18T06:43:49.450Z,101027.63
2023-02-18T06:46:15.913Z,101036.44
2023-02-18T06:48:42.422Z,101032.59
2023-02-18T06:51:08.941Z,101041.34
2023-02-18T06:53:35.459Z,101029.91
2023-02-18T06:56:01.913Z,101032.53
2023-02-18T06:58:28.380Z,101023.22
2023-02-18T07:00:54.834Z,101017.69
2023-02-18T07:03:21.506Z,101017.84
2023-02-18T07:05:48.064Z,101011.53
2023-02-18T07:08:14.629Z,101004.63
2023-02-18T07:10:41.271Z,100989.25
2023-02-18T07:13:07.785Z,100990.78
2023-02-18T07:15:34.277Z,100985.31
2023-02-18T07:18:00.736Z,100977.53
2023-02-18T07:20:27.335Z,100979.72
2023-02-18T07:22:54.365Z,100976.47
2023-02-18T07:25:23.189Z,100970.47
2023-02-18T07:27:50.129Z,100977.47
2023-02-18T07:30:16.988Z,100975.22
2023-02-18T07:32:43.672Z,100972.59
2023-02-18T07:35:14.092Z,100973.53
2023-02-18T07:37:44.247Z,100969.13
2023-02-18T07:40:13.341Z,100972.75
2023-02-18T07:42:39.787Z,100950.16
2023-02-18T07:45:06.596Z,100927.94
2023-02-18T07:47:33.089Z,100926.53
2023-02-18T07:49:59.556Z,100947.78
2023-02-18T07:52:26.018Z,100942.38
2023-02-18T07:54:52.448Z,100931.31
2023-02-18T07:57:18.894Z,100927.81
2023-02-18T07:59:45.357Z,100934.91
2023-02-18T08:02:23.450Z,100928.03
2023-02-18T08:04:50.087Z,100926.72
2023-02-18T08:07:18.661Z,100924.53
2023-02-18T08:09:45.232Z,100911.97
2023-02-18T08:12:11.738Z,100923.09
2023-02-18T08:14:38.433Z,100913.28
2023-02-18T08:17:04.954Z,100897.16
2023-02-18T08:19:31.660Z,100902.47
2023-02-18T08:22:01.909Z,100899.53
2023-02-18T08:24:28.425Z,100894.00
2023-02-18T08:27:01.195Z,100882.81
2023-02-18T08:29:28.102Z,100879.81
2023-02-18T08:31:55.216Z,100880.50
2023-02-18T08:34:21.749Z,100877.63
2023-02-18T08:36:48.194Z,100861.06
2023-02-18T08:39:14.681Z,100852.84
2023-02-18T08:41:41.136Z,100844.50
2023-02-18T08:44:07.689Z,100836.63
2023-02-18T08:46:36.101Z,100816.81
2023-02-18T08:49:04.715Z,100826.53
2023-02-18T08:51:31.610Z,100817.00
2023-02-18T08:53:59.373Z,100810.94
2023-02-18T08:56:26.462Z,100796.13
2023-02-18T08:58:53.041Z,100791.81
2023-02-18T09:01:21.163Z,100789.47
2023-02-18T09:03:49.067Z,100791.84
2023-02-18T09:06:16.144Z,100784.16
2023-02-18T09:08:42.766Z,100788.53
2023-02-18T09:11:11.871Z,100783.59
2023-02-18T09:13:38.801Z,100781.41
2023-02-18T09:16:08.601Z,100785.31
2023-02-18T09:18:36.098Z,100797.41
2023-02-18T09:21:05.117Z,100809.03
2023-02-18T09:23:33.132Z,100798.47
2023-02-18T09:26:00.621Z,100788.16
2023-02-18T09:28:27.292Z,100786.41
2023-02-18T09:30:53.989Z,100787.44
2023-02-18T09:33:20.761Z,100779.22
2023-02-18T09:35:47.314Z,100771.22
2023-02-18T09:38:16.732Z,100766.06
2023-02-18T09:40:50.927Z,100750.69
2023-02-18T09:43:43.863Z,100759.56
2023-02-18T09:46:32.672Z,100747.66
2023-02-18T09:49:04.713Z,100750.50
2023-02-18T09:51:31.225Z,100753.19
2023-02-18T09:53:57.861Z,100759.47
2023-02-18T09:56:30.762Z,100742.47
2023-02-18T09:58:58.978Z,100718.44
2023-02-18T10:01:31.217Z,100710.59
2023-02-18T10:04:04.327Z,100718.22
2023-02-18T10:06:33.509Z,100707.38
2023-02-18T10:09:05.474Z,100708.91
2023-02-18T10:11:38.377Z,100705.56
2023-02-18T10:14:10.044Z,100693.41
2023-02-18T10:16:36.512Z,100684.28
2023-02-18T10:19:33.947Z,100682.63
2023-02-18T10:22:02.977Z,100691.72
2023-02-18T10:24:35.924Z,100692.84
2023-02-18T10:27:05.581Z,100683.72
2023-02-18T10:29:32.374Z,100676.16
2023-02-18T10:32:07.445Z,100670.72
2023-02-18T10:34:41.671Z,100660.53
2023-02-18T10:37:37.172Z,100655.53
2023-02-18T10:40:09.238Z,100652.59
2023-02-18T10:43:00.789Z,100645.47
2023-02-18T10:45:38.818Z,100644.25
2023-02-18T10:48:40.003Z,100642.13
2023-02-18T10:51:17.744Z,100650.84
2023-02-18T10:53:45.912Z,100642.63
2023-02-18T10:56:40.633Z,100640.47
2023-02-18T10:59:15.057Z,100644.63
2023-02-18T11:01:43.037Z,100633.38
2023-02-18T11:04:17.515Z,100634.38
2023-02-18T11:06:46.903Z,100615.97
2023-02-18T11:09:45.709Z,100624.66
2023-02-18T11:12:34.775Z,100609.59
2023-02-18T11:15:17.611Z,100616.94
2023-02-18T11:17:46.951Z,100608.69
2023-02-18T11:20:36.464Z,100606.59
2023-02-18T11:23:06.040Z,100606.06
2023-02-18T11:25:35.152Z,100600.72
2023-02-18T11:28:13.869Z,100607.88
2023-02-18T11:30:48.367Z,100607.22
2023-02-18T11:33:26.232Z,100619.25
2023-02-18T11:35:55.229Z,100618.19
2023-02-18T11:38:43.240Z,100614.63
2023-02-18T11:41:16.421Z,100610.59
2023-02-18T11:43:51.482Z,100602.16
2023-02-18T11:46:22.496Z,100604.41
2023-02-18T11:48:51.951Z,100610.38
2023-02-18T11:51:21.692Z,100608.41
2023-02-18T11:54:25.451Z,100617.00
2023-02-18T11:57:14.522Z,100630.94
2023-02-18T11:59:43.192Z,100640.97
2023-02-18T12:02:42.572Z,100664.88
2023-02-18T12:05:21.009Z,100681.28
2023-02-18T12:08:08.061Z,100697.13
2023-02-18T12:10:42.297Z,100688.34
2023-02-18T12:13:30.882Z,100696.31
2023-02-18T12:16:23.119Z,100671.31
2023-02-18T12:18:58.308Z,100618.63
2023-02-18T12:21:34.354Z,100595.75
2023-02-18T12:24:36.183Z,100637.06
2023-02-18T12:27:11.621Z,100637.63
2023-02-18T12:30:00.275Z,100637.47
2023-02-18T12:32:54.787Z,100653.66
2023-02-18T12:35:38.549Z,100659.75
2023-02-18T12:38:13.367Z,100681.44
2023-02-18T12:40:56.497Z,100680.25
2023-02-18T12:43:59.100Z,100673.59
2023-02-18T12:46:41.753Z,100678.97
2023-02-18T12:49:26.771Z,100682.66
2023-02-18T12:52:23.693Z,100693.63
2023-02-18T12:55:34.705Z,100682.34
2023-02-18T12:58:17.670Z,100681.09
2023-02-18T13:01:06.842Z,100669.81
2023-02-18T13:03:52.060Z,100686.28
2023-02-18T13:06:40.913Z,100696.81
2023-02-18T13:09:13.743Z,100707.06
2023-02-18T13:11:43.134Z,100713.94
2023-02-18T13:14:16.960Z,100714.84
2023-02-18T13:16:46.361Z,100706.66
2023-02-18T13:19:25.546Z,100718.34
2023-02-18T13:21:54.873Z,100720.25
2023-02-18T13:24:28.358Z,100728.28
2023-02-18T13:27:03.557Z,100736.25
2023-02-18T13:29:38.207Z,100741.38
2023-02-18T13:32:16.321Z,100753.19
2023-02-18T13:34:53.987Z,100766.44
2023-02-18T13:37:29.655Z,100750.06
2023-02-18T13:39:57.773Z,100751.63
2023-02-18T13:42:31.721Z,100741.44
2023-02-18T13:44:58.347Z,100747.50
2023-02-18T13:47:38.510Z,100761.91
2023-02-18T13:50:27.422Z,100784.78
2023-02-18T13:53:14.290Z,100779.31
2023-02-18T13:55:57.296Z,100783.44
2023-02-18T13:58:29.758Z,100793.81
2023-02-18T14:01:05.982Z,100782.09
2023-02-18T14:03:45.304Z,100774.66
2023-02-18T14:06:17.590Z,100778.06
2023-02-18T14:08:44.973Z,100769.72
2023-02-18T14:11:11.630Z,100769.63
2023-02-18T14:13:49.183Z,100772.34
2023-02-18T14:16:16.345Z,100778.41
2023-02-18T14:18:43.026Z,100788.25
2023-02-18T14:21:12.584Z,100778.69
2023-02-18T14:23:59.953Z,100800.13
2023-02-18T14:26:35.424Z,100805.16
2023-02-18T14:29:06.951Z,100827.53
2023-02-18T14:31:41.839Z,100838.53
2023-02-18T14:34:32.969Z,100835.75
2023-02-18T14:37:22.387Z,100843.13
2023-02-18T14:40:10.864Z,100859.44
2023-02-18T14:42:52.886Z,100847.47
2023-02-18T14:45:40.300Z,100826.94
2023-02-18T14:48:14.456Z,100812.94
2023-02-18T14:50:43.047Z,100834.84
2023-02-18T14:53:19.448Z,100841.38
2023-02-18T14:55:49.076Z,100829.94
2023-02-18T14:58:27.282Z,100840.13
2023-02-18T15:00:53.945Z,100850.56
2023-02-18T15:03:22.507Z,100846.72
2023-02-18T15:05:53.320Z,100853.03
2023-02-18T15:08:20.865Z,100857.81
2023-02-18T15:10:52.446Z,100870.59
2023-02-18T15:13:31.396Z,100866.41
2023-02-18T15:16:01.269Z,100863.94
2023-02-18T15:18:37.904Z,100870.31
2023-02-18T15:21:10.498Z,100874.47
2023-02-18T15:23:40.053Z,100880.88
2023-02-18T15:26:10.113Z,100871.66
2023-02-18T15:28:42.676Z,100879.53
2023-02-18T15:31:15.106Z,100889.34
2023-02-18T15:33:47.891Z,100885.78
2023-02-18T15:36:15.901Z,100891.25
2023-02-18T15:38:44.832Z,100889.47
2023-02-18T15:41:16.771Z,100892.13
2023-02-18T15:44:03.821Z,100884.59
2023-02-18T15:46:32.386Z,100880.34
2023-02-18T15:49:01.769Z,100892.38
2023-02-18T15:51:30.153Z,100910.13
2023-02-18T15:54:01.771Z,100911.91
2023-02-18T15:56:36.165Z,100911.81
2023-02-18T15:59:30.613Z,100922.34
2023-02-18T16:02:09.128Z,100937.53
2023-02-18T16:04:41.407Z,100932.81
2023-02-18T16:07:31.089Z,100938.84
2023-02-18T16:10:19.046Z,100936.81
2023-02-18T16:12:50.248Z,100934.66
2023-02-18T16:15:27.029Z,100939.63
2023-02-18T16:17:53.634Z,100943.88
2023-02-18T16:20:33.580Z,100942.84
2023-02-18T16:23:03.630Z,100942.75
2023-02-18T16:25:44.464Z,100962.38
2023-02-18T16:28:25.813Z,100957.31
2023-02-18T16:30:53.109Z,100970.16
2023-02-18T16:33:22.842Z,100979.31
2023-02-18T16:35:51.088Z,100979.47
2023-02-18T16:38:20.279Z,100988.41
2023-02-18T16:40:47.900Z,100995.16
2023-02-18T16:43:16.953Z,101014.44
2023-02-18T16:45:50.217Z,101018.38
2023-02-18T16:48:42.190Z,101023.22
2023-02-18T16:51:19.604Z,101026.97
2023-02-18T16:53:47.874Z,101026.84
2023-02-18T16:56:22.497Z,101028.41
2023-02-18T16:58:52.510Z,101024.22
2023-02-18T17:01:29.864Z,101026.13
2023-02-18T17:04:02.223Z,101022.56
2023-02-18T17:06:31.347Z,101027.41
2023-02-18T17:08:58.641Z,101028.44
2023-02-18T17:11:29.387Z,101038.22
2023-02-18T17:13:58.399Z,101035.34
2023-02-18T17:16:28.901Z,101053.28
2023-02-18T17:18:57.176Z,101053.81
2023-02-18T17:21:27.872Z,101063.59
2023-02-18T17:23:55.536Z,101057.03
2023-02-18T17:26:28.100Z,101057.97
2023-02-18T17:28:57.648Z,101063.31
2023-02-18T17:31:30.371Z,101078.13
2023-02-18T17:33:59.742Z,101086.94
2023-02-18T17:36:30.063Z,101089.53
2023-02-18T17:39:01.550Z,101082.75
2023-02-18T17:41:30.584Z,101081.69
2023-02-18T17:43:59.898Z,101096.66
2023-02-18T17:46:28.159Z,101097.44
2023-02-18T17:48:59.254Z,101098.53
2023-02-18T17:51:30.089Z,101112.78
2023-02-18T17:53:58.643Z,101115.53
2023-02-18T17:56:25.808Z,101111.78
2023-02-18T17:58:55.419Z,101122.50
2023-02-18T18:01:23.832Z,101120.97
2023-02-18T18:03:51.489Z,101136.44
2023-02-18T18:06:23.479Z,101139.66
2023-02-18T18:08:50.618Z,101148.59
2023-02-18T18:11:21.250Z,101153.53
2023-02-18T18:13:50.563Z,101152.88
2023-02-18T18:16:21.143Z,101160.84
2023-02-18T18:18:50.358Z,101163.28
2023-02-18T18:21:49.200Z,101163.69
2023-02-18T18:24:17.168Z,101168.66
2023-02-18T18:26:44.379Z,101165.75
2023-02-18T18:29:11.337Z,101162.63
2023-02-18T18:31:41.475Z,101176.00
2023-02-18T18:34:10.209Z,101174.44
2023-02-18T18:36:40.608Z,101178.88
2023-02-18T18:39:09.948Z,101167.91
2023-02-18T18:41:36.876Z,101178.63
2023-02-18T18:44:06.475Z,101180.50
2023-02-18T18:46:34.857Z,101180.16
2023-02-18T18:49:08.382Z,101171.09
2023-02-18T18:51:37.422Z,101174.72
2023-02-18T18:54:04.307Z,101187.72
2023-02-18T18:56:30.823Z,101177.66
2023-02-18T18:58:57.556Z,101191.69
2023-02-18T19:01:27.227Z,101199.47
2023-02-18T19:03:54.269Z,101199.50
2023-02-18T19:06:21.157Z,101195.63
2023-02-18T19:08:47.998Z,101191.63
2023-02-18T19:11:15.680Z,101199.22
2023-02-18T19:13:42.884Z,101199.03
2023-02-18T19:16:23.065Z,101196.78
2023-02-18T19:18:49.542Z,101204.84
2023-02-18T19:21:16.898Z,101203.09
2023-02-18T19:23:43.584Z,101198.72
2023-02-18T19:26:10.578Z,101211.25
2023-02-18T19:28:37.457Z,101206.34
2023-02-18T19:31:11.287Z,101192.00
2023-02-18T19:33:39.453Z,101204.47
2023-02-18T19:36:11.132Z,101206.63
2023-02-18T19:38:38.953Z,101208.69
2023-02-18T19:41:08.354Z,101211.16
2023-02-18T19:43:35.239Z,101221.06
2023-02-18T19:46:08.494Z,101219.59
2023-02-18T19:48:34.961Z,101228.56
2023-02-18T19:51:02.409Z,101228.66
2023-02-18T19:53:29.060Z,101229.81
2023-02-18T19:56:02.276Z,101228.41
2023-02-18T19:58:29.063Z,101228.69
2023-02-18T20:00:56.730Z,101222.69
2023-02-18T20:03:23.214Z,101231.16
2023-02-18T20:05:49.737Z,101227.50
2023-02-18T20:08:16.193Z,101220.34
2023-02-18T20:10:45.979Z,101218.31
2023-02-18T20:13:12.602Z,101215.44
2023-02-18T20:15:40.428Z,101214.94
2023-02-18T20:18:07.837Z,101218.88
2023-02-18T20:20:34.516Z,101215.94
2023-02-18T20:23:01.625Z,101223.16
2023-02-18T20:25:30.005Z,101228.00
2023-02-18T20:28:01.228Z,101222.16
2023-02-18T20:30:28.713Z,101226.72
2023-02-18T20:32:58.353Z,101222.06
2023-02-18T20:35:25.673Z,101218.72
2023-02-18T20:37:53.243Z,101221.13
2023-02-18T20:40:19.960Z,101226.28
2023-02-18T20:42:49.849Z,101233.84
2023-02-18T20:45:18.890Z,101237.97
2023-02-18T20:47:45.443Z,101239.25
2023-02-18T20:50:12.094Z,101240.78
2023-02-18T20:52:38.776Z,101226.56
2023-02-18T20:55:06.974Z,101234.91
2023-02-18T20:57:33.512Z,101228.72
2023-02-18T21:00:00.331Z,101232.88
2023-02-18T21:02:28.160Z,101229.75
2023-02-18T21:04:58.237Z,101232.09
2023-02-18T21:07:24.881Z,101224.34
2023-02-18T21:09:51.785Z,101226.53
2023-02-18T21:12:18.496Z,101226.47
2023-02-18T21:14:45.215Z,101223.91
2023-02-18T21:17:11.898Z,101228.50
2023-02-18T21:19:39.219Z,101229.94
2023-02-18T21:22:05.827Z,101228.41
2023-02-18T21:24:32.399Z,101223.53
2023-02-18T21:26:58.984Z,101230.22
2023-02-18T21:29:25.892Z,101219.94
2023-02-18T21:31:52.585Z,101225.66
2023-02-18T21:34:19.310Z,101224.50
2023-02-18T21:36:47.085Z,101222.34
2023-02-18T21:39:13.717Z,101225.00
2023-02-18T21:41:41.288Z,101223.13
2023-02-18T21:44:08.918Z,101222.94
2023-02-18T21:46:36.760Z,101224.81
2023-02-18T21:49:10.867Z,101214.56
2023-02-18T21:52:08.196Z,101215.50
2023-02-18T21:54:44.594Z,101221.16
2023-02-18T21:57:20.013Z,101218.53
2023-02-18T21:59:46.810Z,101215.56
2023-02-18T22:02:22.011Z,101221.03
2023-02-18T22:04:50.677Z,101224.28
2023-02-18T22:07:18.944Z,101224.84
2023-02-18T22:09:48.383Z,101243.38
2023-02-18T22:12:16.006Z,101237.41
2023-02-18T22:14:43.168Z,101230.28
2023-02-18T22:17:10.081Z,101234.09
2023-02-18T22:19:36.874Z,101216.00
2023-02-18T22:22:03.891Z,101222.97
2023-02-18T22:24:31.109Z,101229.19
2023-02-18T22:27:01.266Z,101218.06
2023-02-18T22:29:29.724Z,101226.84
2023-02-18T22:31:56.684Z,101214.81
2023-02-18T22:34:23.962Z,101215.19
2023-02-18T22:36:51.279Z,101221.47
2023-02-18T22:39:18.331Z,101216.81
2023-02-18T22:41:45.923Z,101205.00
2023-02-18T22:44:14.258Z,101214.44
2023-02-18T22:46:41.092Z,101213.09
2023-02-18T22:49:09.787Z,101200.31
2023-02-18T22:51:38.659Z,101191.38
2023-02-18T22:54:08.564Z,101195.94
2023-02-18T22:56:35.286Z,101193.56
2023-02-18T22:59:02.210Z,101206.75
2023-02-18T23:01:32.038Z,101205.50
2023-02-18T23:04:07.067Z,101194.31
2023-02-18T23:06:34.977Z,101191.94
2023-02-18T23:09:01.935Z,101194.22
2023-02-18T23:11:28.563Z,101180.13
2023-02-18T23:14:14.668Z,101187.34
2023-02-18T23:17:00.283Z,101180.53
2023-02-18T23:19:28.228Z,101186.91
2023-02-18T23:21:54.958Z,101179.03
2023-02-18T23:24:21.863Z,101183.53
2023-02-18T23:26:48.826Z,101186.13
2023-02-18T23:29:16.088Z,101189.22
2023-02-18T23:31:42.865Z,101185.41
2023-02-18T23:34:16.651Z,101184.63
2023-02-18T23:36:44.265Z,101185.00
2023-02-18T23:39:13.449Z,101185.09
2023-02-18T23:41:39.958Z,101175.25
2023-02-18T23:44:08.240Z,101172.59
2023-02-18T23:46:35.182Z,101173.16
2023-02-18T23:49:01.738Z,101178.72
2023-02-18T23:51:29.764Z,101188.66
2023-02-18T23:53:56.558Z,101175.56
2023-02-18T23:56:27.239Z,101178.91
2023-02-18T23:58:57.432Z,101180.22
